Time;durP1;ratioP1;P1;durP2;ratioP2;P2;SDS_P1;SDS_P2;PMS_P1;PMS_P2;Temp;Humidity;BMP_temperature;BMP_pressure;BME280_temperature;BME280_humidity;BME280_pressure;Samples;Min_cycle;Max_cycle;Signal;HPM_P1;HPM_P2
2022/07/16 00:02:03;;;;;;;2.22;1.42;;;18.60;90.20;;;;;;5021570;28;20061;-68
2022/07/16 00:04:29;;;;;;;5.55;1.90;;;18.60;90.30;;;;;;5033010;28;20069;-68
2022/07/16 00:06:55;;;;;;;2.47;1.13;;;18.60;90.40;;;;;;5032570;28;20041;-68
2022/07/16 00:09:21;;;;;;;5.22;2.63;;;18.60;90.50;;;;;;5032464;28;20060;-68
2022/07/16 00:11:47;;;;;;;7.80;2.92;;;18.60;90.70;;;;;;5033274;28;20120;-68
2022/07/16 00:14:12;;;;;;;7.13;2.25;;;18.60;90.90;;;;;;5032554;28;20056;-68
2022/07/16 00:16:38;;;;;;;9.50;2.92;;;18.70;90.90;;;;;;5032304;28;20033;-68
2022/07/16 00:19:16;;;;;;;5.63;1.42;;;18.70;91.10;;;;;;5034637;28;20033;-68
2022/07/16 00:21:43;;;;;;;4.63;1.40;;;18.70;90.80;;;;;;5031429;28;20044;-68
2022/07/16 00:24:09;;;;;;;7.32;1.73;;;18.80;90.70;;;;;;5047352;28;20102;-68
2022/07/16 00:26:35;;;;;;;5.53;1.65;;;18.80;90.50;;;;;;5052547;28;20033;-68
2022/07/16 00:29:01;;;;;;;4.95;1.20;;;18.80;90.50;;;;;;5048678;28;20033;-68
2022/07/16 00:31:27;;;;;;;5.40;1.30;;;18.90;90.60;;;;;;5052083;28;20036;-68
2022/07/16 00:33:52;;;;;;;7.70;1.35;;;18.90;90.90;;;;;;5046162;28;20091;-68
2022/07/16 00:36:18;;;;;;;4.60;1.52;;;18.90;91.10;;;;;;5042346;28;20028;-68
2022/07/16 00:38:44;;;;;;;6.97;1.30;;;18.90;91.00;;;;;;5045333;28;20022;-68
2022/07/16 00:41:18;;;;;;;2.95;1.10;;;19.00;91.10;;;;;;5042881;28;20403;-68
2022/07/16 00:43:52;;;;;;;4.40;1.85;;;19.00;91.20;;;;;;5020548;28;20450;-68
2022/07/16 00:46:18;;;;;;;5.28;1.33;;;19.00;91.20;;;;;;5032402;28;20393;-68
2022/07/16 00:48:46;;;;;;;4.55;1.20;;;19.00;91.10;;;;;;5040752;28;20033;-68
2022/07/16 00:51:13;;;;;;;10.85;1.80;;;19.00;91.30;;;;;;5043275;28;20035;-68
2022/07/16 00:53:39;;;;;;;5.68;1.40;;;19.10;91.60;;;;;;5036829;28;20051;-68
2022/07/16 00:56:11;;;;;;;6.93;1.10;;;19.10;91.70;;;;;;5034024;28;20120;-68
2022/07/16 00:58:42;;;;;;;3.60;1.30;;;19.10;91.90;;;;;;5033676;28;20058;-68
2022/07/16 01:01:08;;;;;;;5.65;1.23;;;19.10;91.90;;;;;;5031741;28;20025;-68
2022/07/16 01:03:35;;;;;;;4.75;1.15;;;19.10;91.80;;;;;;5034422;28;20041;-68
2022/07/16 01:06:03;;;;;;;5.03;1.23;;;19.20;91.60;;;;;;5032506;28;20044;-68
2022/07/16 01:08:29;;;;;;;7.03;1.55;;;19.10;91.60;;;;;;5033900;28;20037;-68
2022/07/16 01:10:56;;;;;;;8.65;1.33;;;19.10;91.40;;;;;;5034423;28;20639;-68
2022/07/16 01:13:23;;;;;;;2.47;1.00;;;19.20;91.60;;;;;;5031930;28;20393;-68
2022/07/16 01:15:49;;;;;;;5.32;1.50;;;19.20;91.50;;;;;;5043657;28;20055;-68
2022/07/16 01:18:14;;;;;;;4.88;1.52;;;19.10;91.20;;;;;;5043819;28;20485;-68
2022/07/16 01:20:41;;;;;;;4.05;1.35;;;19.20;91.10;;;;;;5028550;28;20214;-68
2022/07/16 01:23:07;;;;;;;3.78;1.48;;;19.20;91.20;;;;;;5030514;28;20132;-68
2022/07/16 01:25:33;;;;;;;7.80;1.50;;;19.10;90.90;;;;;;5048652;28;20030;-68
2022/07/16 01:27:58;;;;;;;11.68;1.55;;;19.20;90.90;;;;;;5038703;28;20040;-68
2022/07/16 01:30:25;;;;;;;9.25;1.42;;;19.10;90.80;;;;;;5040589;28;20040;-68
2022/07/16 01:32:51;;;;;;;6.97;1.40;;;19.10;90.60;;;;;;5033927;28;20132;-68
2022/07/16 01:35:17;;;;;;;5.05;1.33;;;19.20;90.80;;;;;;5031402;28;20505;-68
2022/07/16 01:37:46;;;;;;;5.57;1.20;;;19.10;90.90;;;;;;5032011;28;20392;-68
2022/07/16 01:40:11;;;;;;;2.17;1.08;;;19.10;91.20;;;;;;5032257;28;20036;-68
2022/07/16 01:42:37;;;;;;;3.42;1.25;;;19.10;91.40;;;;;;5033327;28;20116;-68
2022/07/16 01:45:03;;;;;;;1.52;1.10;;;19.10;91.50;;;;;;5033225;28;20073;-68
2022/07/16 01:47:29;;;;;;;7.75;1.20;;;19.10;91.40;;;;;;5026525;28;20060;-68
2022/07/16 01:49:55;;;;;;;2.28;1.15;;;19.10;91.30;;;;;;5039655;28;20560;-68
2022/07/16 01:52:21;;;;;;;6.78;1.50;;;19.10;91.30;;;;;;5051147;28;20033;-68
2022/07/16 01:54:50;;;;;;;4.75;1.50;;;19.00;91.20;;;;;;5024035;28;20375;-68
2022/07/16 01:57:20;;;;;;;4.90;1.20;;;19.00;91.20;;;;;;5042540;28;20029;-68
2022/07/16 01:59:46;;;;;;;10.70;1.58;;;19.00;91.20;;;;;;5046411;28;20034;-68
2022/07/16 02:02:15;;;;;;;8.15;1.65;;;19.00;91.20;;;;;;5053863;28;20033;-68
2022/07/16 02:04:42;;;;;;;6.45;1.55;;;19.00;91.30;;;;;;5044330;28;20037;-68
2022/07/16 02:07:08;;;;;;;6.60;1.30;;;19.00;91.30;;;;;;5036824;28;20040;-68
2022/07/16 02:09:34;;;;;;;5.78;1.17;;;18.90;91.30;;;;;;5046007;28;20065;-68
2022/07/16 02:12:00;;;;;;;18.92;1.77;;;18.90;91.30;;;;;;5028090;28;20053;-68
2022/07/16 02:14:26;;;;;;;6.05;1.55;;;18.90;91.30;;;;;;5034973;28;20481;-68
2022/07/16 02:16:52;;;;;;;22.42;2.78;;;18.80;91.20;;;;;;5038747;28;20080;-68
2022/07/16 02:19:18;;;;;;;3.40;1.40;;;18.80;91.20;;;;;;5036260;28;20045;-68
2022/07/16 02:21:43;;;;;;;5.00;1.27;;;18.80;91.20;;;;;;5039707;28;20507;-68
2022/07/16 02:24:09;;;;;;;8.95;1.45;;;18.80;91.10;;;;;;5040654;28;20398;-68
2022/07/16 02:26:35;;;;;;;8.77;1.55;;;18.70;91.00;;;;;;5038615;28;20034;-68
2022/07/16 02:29:00;;;;;;;5.25;1.42;;;18.70;91.00;;;;;;5037858;28;20040;-68
2022/07/16 02:31:26;;;;;;;5.10;1.60;;;18.70;91.00;;;;;;5053744;28;20484;-68
2022/07/16 02:33:52;;;;;;;8.73;1.13;;;18.70;91.10;;;;;;5053478;28;20029;-68
2022/07/16 02:36:18;;;;;;;4.50;1.20;;;18.60;91.10;;;;;;5034471;28;20531;-68
2022/07/16 02:38:43;;;;;;;6.18;2.60;;;18.60;91.00;;;;;;5034491;28;20056;-68
2022/07/16 02:41:09;;;;;;;5.75;1.20;;;18.60;90.90;;;;;;5035010;28;20030;-68
2022/07/16 02:43:41;;;;;;;10.70;1.35;;;18.60;90.90;;;;;;5032885;28;20032;-68
2022/07/16 02:46:06;;;;;;;2.03;1.00;;;18.60;90.90;;;;;;5035140;28;20040;-68
2022/07/16 02:48:32;;;;;;;5.88;1.48;;;18.60;90.90;;;;;;5040274;28;20029;-68
2022/07/16 02:50:58;;;;;;;7.18;1.80;;;18.50;90.90;;;;;;5039767;28;20057;-68
2022/07/16 02:53:23;;;;;;;5.47;1.38;;;18.50;90.80;;;;;;5045868;28;20049;-68
2022/07/16 02:55:50;;;;;;;2.60;1.05;;;18.50;90.80;;;;;;5035141;28;20043;-68
2022/07/16 02:58:16;;;;;;;5.45;1.35;;;18.50;90.80;;;;;;5044753;28;20120;-68
2022/07/16 03:00:41;;;;;;;6.45;1.48;;;18.50;90.70;;;;;;5041704;28;20068;-68
2022/07/16 03:03:07;;;;;;;14.07;1.98;;;18.50;90.70;;;;;;5043773;28;20495;-68
2022/07/16 03:05:33;;;;;;;5.90;1.25;;;18.50;90.60;;;;;;5032630;28;20037;-68
2022/07/16 03:07:59;;;;;;;10.25;1.83;;;18.40;90.60;;;;;;5046388;28;20029;-68
2022/07/16 03:10:25;;;;;;;9.13;1.40;;;18.40;90.60;;;;;;5051552;28;20443;-68
2022/07/16 03:12:50;;;;;;;2.92;1.30;;;18.40;90.50;;;;;;5048426;28;20051;-68
2022/07/16 03:15:19;;;;;;;6.55;1.80;;;18.40;90.50;;;;;;5051285;28;20032;-68
2022/07/16 03:17:44;;;;;;;2.42;1.27;;;18.40;90.40;;;;;;5044419;28;20069;-68
2022/07/16 03:20:12;;;;;;;8.30;1.30;;;18.30;90.10;;;;;;5040973;28;20060;-68
2022/07/16 03:22:43;;;;;;;8.73;1.48;;;18.30;89.90;;;;;;5034126;28;20054;-68
2022/07/16 03:25:08;;;;;;;13.57;1.60;;;18.20;89.70;;;;;;5033755;28;20048;-68
2022/07/16 03:27:34;;;;;;;7.65;1.60;;;18.20;89.40;;;;;;5033829;28;20029;-68
2022/07/16 03:30:00;;;;;;;10.77;1.88;;;18.20;89.10;;;;;;5033941;28;20037;-68
2022/07/16 03:32:26;;;;;;;6.95;1.70;;;18.10;88.80;;;;;;5033778;28;20041;-68
2022/07/16 03:34:51;;;;;;;4.28;1.70;;;18.10;88.50;;;;;;5031771;28;20026;-68
2022/07/16 03:37:17;;;;;;;5.47;1.33;;;18.10;88.20;;;;;;5052677;28;20477;-68
2022/07/16 03:39:43;;;;;;;7.80;1.60;;;18.00;88.20;;;;;;5051688;28;20044;-68
2022/07/16 03:42:08;;;;;;;2.92;1.40;;;18.00;88.10;;;;;;5046089;28;20029;-68
2022/07/16 03:44:34;;;;;;;5.63;1.60;;;17.90;88.00;;;;;;5046559;28;20049;-68
2022/07/16 03:47:00;;;;;;;7.00;1.50;;;17.90;87.90;;;;;;5027586;28;20524;-68
2022/07/16 03:49:26;;;;;;;3.65;1.90;;;17.90;88.00;;;;;;5039288;28;20108;-68
2022/07/16 03:51:52;;;;;;;4.55;1.70;;;17.90;88.00;;;;;;5041145;28;20449;-68
2022/07/16 03:54:17;;;;;;;7.05;1.77;;;17.90;88.00;;;;;;5050216;28;20029;-68
2022/07/16 03:56:43;;;;;;;5.57;1.70;;;17.80;88.50;;;;;;5052412;28;20017;-68
2022/07/16 03:59:10;;;;;;;4.18;1.80;;;17.80;88.50;;;;;;5038729;28;20396;-68
2022/07/16 04:01:37;;;;;;;6.00;1.85;;;17.80;89.20;;;;;;5040870;28;20028;-68
2022/07/16 04:04:03;;;;;;;5.75;2.30;;;17.80;90.00;;;;;;5046531;28;20392;-68
2022/07/16 04:06:28;;;;;;;7.43;1.90;;;17.80;90.10;;;;;;5052488;28;20021;-68
2022/07/16 04:08:54;;;;;;;4.75;2.00;;;17.80;90.10;;;;;;5052718;28;20033;-68
2022/07/16 04:11:20;;;;;;;6.25;1.95;;;17.80;90.20;;;;;;5051778;28;20025;-68
2022/07/16 04:13:46;;;;;;;10.10;1.67;;;17.80;90.30;;;;;;5053324;28;20055;-68
2022/07/16 04:16:11;;;;;;;9.70;1.63;;;17.80;90.40;;;;;;5036907;28;20433;-68
2022/07/16 04:18:37;;;;;;;10.05;1.58;;;17.80;90.70;;;;;;5047055;28;20052;-68
2022/07/16 04:21:04;;;;;;;8.32;1.52;;;17.80;90.60;;;;;;5033423;28;20033;-68
2022/07/16 04:23:36;;;;;;;3.90;1.60;;;17.80;90.30;;;;;;5032137;28;20053;-68
2022/07/16 04:26:02;;;;;;;11.52;1.92;;;17.80;90.10;;;;;;5044947;28;20026;-68
2022/07/16 04:28:28;;;;;;;8.40;1.90;;;17.80;90.00;;;;;;5033821;28;20029;-68
2022/07/16 04:30:54;;;;;;;11.48;2.00;;;17.80;90.00;;;;;;5032928;28;20494;-68
2022/07/16 04:33:20;;;;;;;7.50;2.33;;;17.80;90.00;;;;;;5033577;28;20539;-68
2022/07/16 04:35:49;;;;;;;8.05;1.63;;;17.90;89.70;;;;;;5033093;28;20037;-68
2022/07/16 04:38:16;;;;;;;6.85;2.22;;;17.90;89.70;;;;;;5032881;28;20044;-68
2022/07/16 04:40:42;;;;;;;8.25;1.30;;;17.90;89.70;;;;;;5035043;28;20061;-68
2022/07/16 04:43:07;;;;;;;7.65;1.70;;;17.90;89.40;;;;;;5035295;28;20060;-68
2022/07/16 04:45:33;;;;;;;3.63;1.00;;;17.90;89.20;;;;;;5030687;28;20025;-68
2022/07/16 04:48:00;;;;;;;6.03;1.05;;;17.90;89.00;;;;;;5035286;28;20369;-68
2022/07/16 04:50:28;;;;;;;5.00;1.50;;;18.00;89.00;;;;;;5035243;28;20026;-68
2022/07/16 04:52:54;;;;;;;4.53;1.23;;;17.90;88.80;;;;;;5031987;28;20064;-68
2022/07/16 04:55:19;;;;;;;7.65;1.48;;;18.00;88.70;;;;;;5035877;28;20041;-68
2022/07/16 04:57:45;;;;;;;1.98;0.98;;;17.90;88.30;;;;;;5037765;28;20028;-68
2022/07/16 05:00:11;;;;;;;2.33;1.02;;;17.90;88.20;;;;;;5034917;28;20465;-68
2022/07/16 05:05:21;;;;;;;6.57;1.40;;;17.90;88.10;;;;;;5033650;28;20465;-68
2022/07/16 05:07:48;;;;;;;4.75;1.33;;;17.90;88.00;;;;;;5038595;28;20034;-68
2022/07/16 05:10:14;;;;;;;7.95;1.27;;;17.90;88.00;;;;;;5042471;28;20047;-68
2022/07/16 05:12:40;;;;;;;4.10;1.05;;;18.00;87.90;;;;;;5038499;28;20032;-68
2022/07/16 05:15:07;;;;;;;5.63;1.27;;;17.90;87.70;;;;;;5042018;28;20037;-68
2022/07/16 05:17:32;;;;;;;5.07;1.17;;;17.90;87.80;;;;;;5025967;28;20469;-68
2022/07/16 05:19:58;;;;;;;6.32;1.30;;;18.00;87.70;;;;;;5033160;28;20522;-68
2022/07/16 05:22:24;;;;;;;4.70;1.08;;;18.00;87.40;;;;;;5031594;28;20056;-68
2022/07/16 05:24:51;;;;;;;5.00;1.02;;;18.00;87.30;;;;;;5032656;28;20120;-68
2022/07/16 05:27:17;;;;;;;3.10;1.27;;;18.00;87.20;;;;;;5031242;28;20113;-68
2022/07/16 05:29:45;;;;;;;4.65;1.30;;;18.00;87.30;;;;;;5033237;28;20037;-68
2022/07/16 05:32:11;;;;;;;9.90;2.45;;;17.90;87.10;;;;;;5031871;28;20370;-68
2022/07/16 05:34:37;;;;;;;8.18;1.40;;;18.00;87.30;;;;;;5044536;28;20051;-68
2022/07/16 05:37:02;;;;;;;8.73;1.33;;;18.00;87.10;;;;;;5034808;28;20473;-68
2022/07/16 05:39:29;;;;;;;5.10;1.10;;;18.00;87.00;;;;;;5033391;28;20033;-68
2022/07/16 05:41:56;;;;;;;4.78;1.30;;;18.00;87.10;;;;;;5054296;28;20090;-68
2022/07/16 05:44:21;;;;;;;3.58;1.30;;;18.00;87.00;;;;;;5041186;28;20042;-68
2022/07/16 05:46:47;;;;;;;5.13;1.30;;;18.00;86.80;;;;;;5031972;28;20076;-68
2022/07/16 05:49:13;;;;;;;6.50;1.02;;;18.10;86.60;;;;;;5032478;28;20030;-68
2022/07/16 05:51:38;;;;;;;4.75;0.90;;;18.10;86.40;;;;;;5033461;28;20030;-68
2022/07/16 05:54:04;;;;;;;5.90;1.00;;;18.10;86.40;;;;;;5032746;28;20033;-68
2022/07/16 05:56:33;;;;;;;3.05;1.20;;;18.10;86.40;;;;;;5033633;28;20501;-68
2022/07/16 05:59:02;;;;;;;7.97;1.38;;;18.10;85.70;;;;;;5035050;28;20041;-68
2022/07/16 06:01:31;;;;;;;5.88;1.33;;;18.20;85.60;;;;;;5033501;28;20124;-68
2022/07/16 06:04:03;;;;;;;5.05;0.93;;;18.20;85.10;;;;;;5032636;28;20099;-67
2022/07/16 06:06:29;;;;;;;6.80;1.17;;;18.20;85.00;;;;;;5033682;28;20059;-68
2022/07/16 06:08:55;;;;;;;7.10;1.38;;;18.20;84.40;;;;;;5030641;28;20041;-67
2022/07/16 06:11:21;;;;;;;8.30;1.20;;;18.20;84.50;;;;;;5048745;28;20028;-67
2022/07/16 06:13:46;;;;;;;4.97;0.93;;;18.20;84.40;;;;;;5048130;28;20116;-67
2022/07/16 06:16:12;;;;;;;2.47;0.80;;;18.20;84.10;;;;;;5049388;28;20029;-68
2022/07/16 06:18:42;;;;;;;6.00;1.17;;;18.20;84.20;;;;;;5042110;28;20112;-68
2022/07/16 06:21:08;;;;;;;3.85;0.75;;;18.20;84.10;;;;;;5048188;28;20032;-68
2022/07/16 06:23:36;;;;;;;3.70;0.95;;;18.30;84.80;;;;;;5047817;28;20045;-68
2022/07/16 06:26:02;;;;;;;4.75;1.15;;;18.20;85.10;;;;;;5043539;28;20025;-68
2022/07/16 06:28:28;;;;;;;5.70;1.20;;;18.20;85.10;;;;;;5045599;28;20082;-68
2022/07/16 06:30:54;;;;;;;7.22;1.48;;;18.20;84.80;;;;;;5047664;28;20362;-68
2022/07/16 06:33:20;;;;;;;5.07;1.10;;;18.20;84.60;;;;;;5037574;28;20029;-68
2022/07/16 06:35:46;;;;;;;3.92;0.80;;;18.30;84.40;;;;;;5030361;28;20022;-68
2022/07/16 06:38:14;;;;;;;4.63;0.90;;;18.30;84.00;;;;;;5043551;28;20567;-69
2022/07/16 06:40:44;;;;;;;6.18;0.90;;;18.30;84.00;;;;;;5041485;28;20112;-70
2022/07/16 06:43:10;;;;;;;9.05;1.30;;;18.30;84.00;;;;;;5043685;28;20032;-70
2022/07/16 06:45:37;;;;;;;5.28;1.00;;;18.40;84.10;;;;;;5046747;28;20028;-70
2022/07/16 06:48:05;;;;;;;1.98;0.90;;;18.40;84.10;;;;;;5049475;28;20115;-71
2022/07/16 06:50:31;;;;;;;6.35;1.08;;;18.40;84.00;;;;;;5048635;28;20481;-71
2022/07/16 06:52:57;;;;;;;7.30;1.17;;;18.40;84.00;;;;;;5046175;28;20028;-71
2022/07/16 06:55:22;;;;;;;5.32;1.02;;;18.40;83.80;;;;;;5049356;28;20061;-70
2022/07/16 06:57:48;;;;;;;9.50;1.30;;;18.40;83.70;;;;;;5045911;28;20029;-71
2022/07/16 07:00:14;;;;;;;4.80;1.13;;;18.50;83.90;;;;;;5049131;28;20037;-71
2022/07/16 07:02:44;;;;;;;5.38;1.13;;;18.50;84.30;;;;;;5046358;28;20594;-69
2022/07/16 07:05:10;;;;;;;3.53;0.75;;;18.50;83.50;;;;;;5045454;28;20764;-68
2022/07/16 07:07:36;;;;;;;2.60;1.00;;;18.50;83.50;;;;;;5045588;28;20044;-69
2022/07/16 07:10:02;;;;;;;3.05;1.00;;;18.50;83.40;;;;;;5044303;28;20021;-67
2022/07/16 07:12:27;;;;;;;2.40;1.00;;;18.50;83.10;;;;;;5048758;28;20025;-69
2022/07/16 07:14:53;;;;;;;9.30;1.15;;;18.60;82.50;;;;;;5047927;28;21316;-66
2022/07/16 07:17:22;;;;;;;6.20;0.90;;;18.60;82.90;;;;;;5048157;28;20047;-69
2022/07/16 07:19:48;;;;;;;4.07;1.15;;;18.60;82.30;;;;;;5043433;28;20037;-68
2022/07/16 07:22:16;;;;;;;6.38;1.25;;;18.60;82.20;;;;;;5044657;28;20132;-69
2022/07/16 07:24:45;;;;;;;6.32;0.93;;;18.70;81.70;;;;;;5042768;28;20112;-68
2022/07/16 07:27:10;;;;;;;2.72;1.10;;;18.80;81.70;;;;;;5046414;28;20018;-68
2022/07/16 07:29:37;;;;;;;5.65;1.20;;;18.80;81.50;;;;;;5036164;28;20385;-68
2022/07/16 07:32:03;;;;;;;3.35;0.90;;;18.80;81.30;;;;;;5037783;28;20365;-68
2022/07/16 07:34:29;;;;;;;2.25;0.75;;;18.80;80.70;;;;;;5042554;28;20032;-71
2022/07/16 07:36:55;;;;;;;4.18;1.08;;;18.90;80.90;;;;;;5035523;28;20033;-68
2022/07/16 07:39:21;;;;;;;2.88;0.85;;;18.90;81.10;;;;;;5045075;28;20514;-68
2022/07/16 07:41:46;;;;;;;3.63;1.27;;;18.90;81.10;;;;;;5048626;28;20071;-66
2022/07/16 07:44:36;;;;;;;5.50;1.00;;;19.00;81.20;;;;;;5044503;28;20052;-66
2022/07/16 07:47:02;;;;;;;8.65;1.25;;;19.00;81.50;;;;;;5046641;28;20029;-67
2022/07/16 07:49:27;;;;;;;3.53;1.40;;;19.00;81.50;;;;;;5048452;28;20039;-67
2022/07/16 07:51:54;;;;;;;5.95;1.70;;;19.00;81.70;;;;;;5048246;28;20037;-69
2022/07/16 07:54:21;;;;;;;5.72;1.20;;;18.90;81.00;;;;;;5047698;28;20511;-67
2022/07/16 07:56:48;;;;;;;10.63;1.20;;;18.90;81.10;;;;;;5043501;28;20029;-66
2022/07/16 07:59:13;;;;;;;8.43;1.77;;;18.90;81.40;;;;;;5045873;28;20029;-66
2022/07/16 08:01:42;;;;;;;7.55;1.15;;;19.00;81.50;;;;;;5049627;28;20021;-66
2022/07/16 08:04:09;;;;;;;9.50;1.85;;;19.00;81.60;;;;;;5042038;28;20052;-67
2022/07/16 08:06:35;;;;;;;4.35;0.90;;;19.00;82.50;;;;;;5046705;28;20103;-67
2022/07/16 08:09:04;;;;;;;3.97;1.10;;;19.10;81.80;;;;;;5044278;28;20033;-67
2022/07/16 08:11:30;;;;;;;5.13;1.10;;;19.00;82.40;;;;;;5040909;28;20052;-69
2022/07/16 08:13:56;;;;;;;5.57;1.00;;;19.10;82.10;;;;;;5043562;28;20049;-67
2022/07/16 08:16:22;;;;;;;7.45;1.60;;;19.10;82.10;;;;;;5032116;28;21999;-67
2022/07/16 08:18:47;;;;;;;5.97;1.30;;;19.10;82.20;;;;;;5040528;28;20496;-67
2022/07/16 08:21:13;;;;;;;5.57;1.27;;;19.10;82.20;;;;;;5046171;28;20435;-67
2022/07/16 08:26:24;;;;;;;6.68;1.70;;;19.20;82.30;;;;;;5043362;28;20033;-67
2022/07/16 08:28:50;;;;;;;9.45;1.55;;;19.10;81.80;;;;;;5043593;28;20044;-68
2022/07/16 08:31:16;;;;;;;5.65;1.23;;;19.10;81.20;;;;;;5043220;28;20049;-69
2022/07/16 08:33:42;;;;;;;5.65;1.25;;;19.10;81.40;;;;;;5046979;28;20379;-67
2022/07/16 08:36:08;;;;;;;6.03;1.63;;;19.20;81.70;;;;;;5049112;28;20028;-67
2022/07/16 08:38:33;;;;;;;8.63;1.63;;;19.20;82.40;;;;;;5047285;28;20095;-67
2022/07/16 08:41:05;;;;;;;6.95;1.42;;;19.20;82.60;;;;;;5049251;28;20036;-67
2022/07/16 08:43:32;;;;;;;3.95;1.20;;;19.30;82.50;;;;;;5048731;28;20033;-68
2022/07/16 08:45:58;;;;;;;5.88;0.98;;;19.40;82.30;;;;;;5025406;28;20104;-67
2022/07/16 08:48:26;;;;;;;6.25;1.55;;;19.40;81.90;;;;;;5032858;28;20061;-67
2022/07/16 08:50:53;;;;;;;10.05;1.45;;;19.40;81.80;;;;;;5033481;28;20477;-67
2022/07/16 08:53:23;;;;;;;7.55;1.40;;;19.40;81.90;;;;;;5045786;28;20063;-67
2022/07/16 08:55:52;;;;;;;5.00;1.05;;;19.50;80.90;;;;;;5045417;28;20086;-67
2022/07/16 08:58:18;;;;;;;8.32;1.40;;;19.50;81.10;;;;;;5051853;28;20139;-67
2022/07/16 09:00:45;;;;;;;9.82;1.67;;;19.40;81.00;;;;;;5051329;28;20040;-67
2022/07/16 09:03:15;;;;;;;5.68;1.08;;;19.50;81.00;;;;;;5043276;28;20029;-67
2022/07/16 09:05:41;;;;;;;6.80;1.25;;;19.50;81.00;;;;;;5030649;28;20060;-67
2022/07/16 09:08:07;;;;;;;3.33;0.93;;;19.50;81.30;;;;;;5037735;28;20087;-67
2022/07/16 09:10:38;;;;;;;5.75;1.10;;;19.60;81.60;;;;;;5032081;28;20064;-67
2022/07/16 09:13:05;;;;;;;5.45;0.73;;;19.50;80.60;;;;;;5037902;28;20033;-67
2022/07/16 09:15:35;;;;;;;8.27;1.30;;;19.60;81.10;;;;;;5036497;28;20029;-67
2022/07/16 09:18:23;;;;;;;3.50;1.10;;;19.60;80.50;;;;;;5032109;28;20025;-67
2022/07/16 09:20:50;;;;;;;9.65;0.68;;;19.60;79.70;;;;;;5032328;28;20033;-67
2022/07/16 09:23:30;;;;;;;7.60;1.63;;;19.70;80.60;;;;;;5032325;28;20417;-67
2022/07/16 09:25:57;;;;;;;7.20;1.40;;;19.70;78.70;;;;;;5032589;28;20050;-67
2022/07/16 09:28:25;;;;;;;2.05;0.90;;;19.70;79.40;;;;;;5028895;28;20029;-66
2022/07/16 09:30:51;;;;;;;7.00;1.73;;;19.70;79.90;;;;;;5032444;28;20448;-66
2022/07/16 09:33:20;;;;;;;6.95;1.30;;;19.70;79.80;;;;;;5035288;28;20397;-66
2022/07/16 09:35:47;;;;;;;4.70;0.90;;;19.70;79.20;;;;;;5032371;28;20392;-66
2022/07/16 09:38:15;;;;;;;8.02;1.38;;;19.80;79.70;;;;;;5032417;28;20025;-66
2022/07/16 09:40:47;;;;;;;10.07;1.40;;;19.90;79.40;;;;;;5043254;28;20380;-67
2022/07/16 09:43:13;;;;;;;11.90;1.23;;;19.90;79.40;;;;;;5030994;28;20035;-68
2022/07/16 09:45:40;;;;;;;8.73;0.88;;;20.00;79.90;;;;;;5034156;28;20383;-68
2022/07/16 09:48:23;;;;;;;5.85;1.38;;;20.00;80.20;;;;;;5040034;28;20037;-68
2022/07/16 09:50:51;;;;;;;9.15;1.05;;;20.00;79.10;;;;;;5031385;28;20034;-68
2022/07/16 09:53:26;;;;;;;4.97;1.20;;;20.00;78.90;;;;;;5035955;28;20033;-68
2022/07/16 09:56:06;;;;;;;8.85;1.40;;;20.10;79.20;;;;;;5041729;28;20032;-66
2022/07/16 09:58:33;;;;;;;7.00;1.30;;;20.10;79.20;;;;;;5049632;28;20033;-67
2022/07/16 10:01:01;;;;;;;11.88;1.58;;;20.10;79.40;;;;;;5037894;28;20029;-67
2022/07/16 10:03:27;;;;;;;4.68;1.30;;;20.10;78.10;;;;;;5030183;28;20041;-66
2022/07/16 10:05:54;;;;;;;5.38;1.40;;;20.10;78.80;;;;;;5030202;28;20036;-67
2022/07/16 10:08:20;;;;;;;4.57;1.05;;;20.10;79.10;;;;;;5031847;28;20273;-67
2022/07/16 10:10:48;;;;;;;8.20;1.38;;;20.20;79.80;;;;;;5036081;28;20071;-67
2022/07/16 10:13:15;;;;;;;5.00;1.10;;;20.20;79.70;;;;;;5035212;28;20071;-66
2022/07/16 10:15:42;;;;;;;7.85;1.30;;;20.20;79.70;;;;;;5030404;28;20021;-66
2022/07/16 10:18:46;;;;;;;8.10;1.00;;;20.20;79.60;;;;;;5034896;28;20037;-66
2022/07/16 10:21:17;;;;;;;4.25;0.90;;;20.30;80.20;;;;;;5035922;28;20485;-66
2022/07/16 10:24:03;;;;;;;8.60;1.63;;;20.40;80.40;;;;;;5039629;28;20076;-66
2022/07/16 10:26:29;;;;;;;7.35;1.40;;;20.40;80.20;;;;;;5035797;28;20466;-66
2022/07/16 10:28:55;;;;;;;5.43;1.10;;;20.40;80.50;;;;;;5034032;28;20859;-66
2022/07/16 10:31:30;;;;;;;4.07;1.17;;;20.40;80.30;;;;;;5035021;28;20480;-66
2022/07/16 10:34:14;;;;;;;4.18;0.95;;;20.50;80.10;;;;;;5036651;28;20116;-66
2022/07/16 10:36:52;;;;;;;1.90;0.80;;;20.40;79.10;;;;;;5023283;28;20029;-66
2022/07/16 10:39:19;;;;;;;6.43;1.20;;;20.50;79.20;;;;;;5035054;28;20528;-67
2022/07/16 10:41:48;;;;;;;7.93;0.90;;;20.50;79.30;;;;;;5034731;28;20021;-66
2022/07/16 10:44:15;;;;;;;5.75;1.15;;;20.40;79.10;;;;;;5041909;28;20038;-67
2022/07/16 10:46:54;;;;;;;5.72;1.33;;;20.50;79.20;;;;;;5037657;28;20044;-66
2022/07/16 10:49:21;;;;;;;3.30;1.20;;;20.50;78.90;;;;;;5041941;28;20065;-67
2022/07/16 10:52:00;;;;;;;6.93;1.10;;;20.60;79.40;;;;;;5039920;28;20044;-66
2022/07/16 10:54:30;;;;;;;5.75;1.40;;;20.60;78.70;;;;;;5037151;28;20069;-66
2022/07/16 10:56:59;;;;;;;6.18;1.08;;;20.70;78.00;;;;;;5034734;28;20040;-67
2022/07/16 10:59:29;;;;;;;10.02;1.65;;;20.70;78.20;;;;;;5040666;28;20045;-67
2022/07/16 11:02:01;;;;;;;4.65;1.15;;;20.70;77.90;;;;;;5041254;28;20029;-66
2022/07/16 11:04:35;;;;;;;2.38;0.80;;;20.70;77.10;;;;;;5042737;28;20465;-66
2022/07/16 11:07:02;;;;;;;;;;;20.80;77.70;;;;;;5034947;28;20036;-67
2022/07/16 11:09:33;;;;;;;6.38;1.00;;;20.80;79.30;;;;;;5035711;28;20357;-68
2022/07/16 11:12:10;;;;;;;4.22;0.90;;;20.90;77.50;;;;;;5040470;28;20030;-67
2022/07/16 11:14:36;;;;;;;3.85;1.33;;;20.80;76.50;;;;;;5039403;28;20049;-67
2022/07/16 11:17:03;;;;;;;4.43;1.13;;;20.90;76.90;;;;;;5035545;28;20029;-67
2022/07/16 11:19:28;;;;;;;4.35;0.73;;;21.00;75.90;;;;;;5032704;28;20025;-67
2022/07/16 11:21:59;;;;;;;7.05;1.00;;;21.00;77.20;;;;;;5043189;28;20465;-68
2022/07/16 11:24:26;;;;;;;4.88;1.50;;;21.00;75.90;;;;;;5035089;28;20041;-70
2022/07/16 11:26:53;;;;;;;5.55;0.80;;;21.10;74.40;;;;;;5041650;28;20041;-71
2022/07/16 11:29:20;;;;;;;6.18;1.70;;;21.00;75.00;;;;;;5037870;28;20113;-69
2022/07/16 11:31:47;;;;;;;1.17;0.60;;;21.00;74.90;;;;;;5035959;28;20067;-68
2022/07/16 11:34:14;;;;;;;3.60;1.08;;;21.00;74.50;;;;;;5037789;28;20033;-67
2022/07/16 11:36:42;;;;;;;2.28;0.85;;;21.10;74.00;;;;;;5040539;28;20469;-71
2022/07/16 11:39:10;;;;;;;7.25;1.13;;;21.10;76.50;;;;;;5032947;28;20072;-70
2022/07/16 11:41:38;;;;;;;8.45;1.10;;;21.20;76.70;;;;;;5040978;28;20108;-75
2022/07/16 11:44:18;;;;;;;2.78;0.90;;;21.20;76.20;;;;;;5048806;28;20101;-73
2022/07/16 11:46:55;;;;;;;2.60;0.95;;;21.30;76.40;;;;;;5050322;28;20117;-71
2022/07/16 11:49:26;;;;;;;6.80;1.02;;;21.20;76.40;;;;;;5038738;28;20032;-73
2022/07/16 11:51:53;;;;;;;4.85;1.20;;;21.30;77.10;;;;;;5035007;28;20033;-73
2022/07/16 11:54:20;;;;;;;6.18;1.35;;;21.30;76.50;;;;;;5033350;28;20065;-72
2022/07/16 11:56:46;;;;;;;7.28;1.15;;;21.30;76.40;;;;;;5034412;28;20042;-73
2022/07/16 11:59:19;;;;;;;2.92;0.80;;;21.40;76.60;;;;;;5033118;28;20521;-72
2022/07/16 12:01:44;;;;;;;6.53;1.50;;;21.40;77.30;;;;;;5036136;28;20068;-72
2022/07/16 12:04:10;;;;;;;2.95;0.82;;;21.50;77.60;;;;;;5032589;28;20505;-74
2022/07/16 12:06:36;;;;;;;6.90;1.27;;;21.50;78.10;;;;;;5032328;28;20018;-71
2022/07/16 12:09:03;;;;;;;6.78;1.20;;;21.50;77.40;;;;;;5038908;28;20034;-71
2022/07/16 12:11:30;;;;;;;2.17;1.08;;;21.50;76.30;;;;;;5047879;28;20029;-70
2022/07/16 12:14:06;;;;;;;10.27;1.25;;;21.50;77.20;;;;;;5036155;28;20146;-71
2022/07/16 12:16:31;;;;;;;8.88;1.40;;;21.50;77.00;;;;;;5040178;28;20017;-71
2022/07/16 12:19:01;;;;;;;4.03;0.55;;;21.50;75.40;;;;;;5036858;28;20041;-71
2022/07/16 12:21:29;;;;;;;5.75;1.20;;;21.50;77.20;;;;;;5031138;28;20044;-71
2022/07/16 12:23:55;;;;;;;3.75;1.13;;;21.50;77.00;;;;;;5031148;28;20516;-70
2022/07/16 12:26:30;;;;;;;3.00;0.90;;;21.50;76.80;;;;;;5036631;28;20107;-71
2022/07/16 12:28:56;;;;;;;9.52;1.20;;;21.50;76.00;;;;;;5033671;28;21204;-71
2022/07/16 12:31:26;;;;;;;5.95;1.20;;;21.50;77.10;;;;;;5048146;28;20039;-74
2022/07/16 12:33:53;;;;;;;7.93;1.17;;;21.60;76.30;;;;;;5042659;28;20048;-71
2022/07/16 12:36:19;;;;;;;9.43;1.00;;;21.60;77.00;;;;;;5029973;28;20523;-69
2022/07/16 12:38:54;;;;;;;4.88;1.17;;;21.60;77.00;;;;;;5048033;28;20032;-70
2022/07/16 12:41:36;;;;;;;6.60;1.33;;;21.70;76.20;;;;;;5031798;28;20026;-70
2022/07/16 12:44:16;;;;;;;5.68;1.02;;;21.70;74.90;;;;;;5033157;28;20615;-70
2022/07/16 12:46:46;;;;;;;9.73;1.83;;;21.70;76.30;;;;;;5032885;28;20400;-70
2022/07/16 12:49:17;;;;;;;5.15;1.00;;;21.70;74.10;;;;;;5049944;28;20029;-69
2022/07/16 12:51:48;;;;;;;4.85;1.30;;;21.70;74.30;;;;;;5047022;28;20134;-70
2022/07/16 12:54:15;;;;;;;5.88;1.98;;;21.80;75.60;;;;;;5046976;28;20512;-73